Time,TemperatureF,DewpointF,PressureIn,WindDirection,WindDirectionDegrees,WindSpeedMPH,WindSpeedGustMPH,Humidity,HourlyPrecipIn,Conditions,Clouds,dailyrainin,SoftwareType,DateUTC
2013-02-22 00:01:00,33.9,33.0,29.82,ENE,62,0.0,0.0,96,0.00,,,0.00,weatherlink.com 1.10,2013-02-22 06:01:00,
2013-02-22 00:16:00,33.9,33.0,29.82,ENE,62,0.0,0.0,96,0.00,,,0.00,weatherlink.com 1.10,2013-02-22 06:16:00,
2013-02-22 00:31:00,33.9,33.0,29.82,ENE,62,0.0,0.0,96,0.00,,,0.00,weatherlink.com 1.10,2013-02-22 06:31:00,
2013-02-22 00:46:00,34.0,33.0,29.83,ENE,62,0.0,0.0,96,0.00,,,0.00,weatherlink.com 1.10,2013-02-22 06:46:00,
2013-02-22 01:01:00,33.9,33.0,29.83,ENE,62,0.0,0.0,96,0.00,,,0.00,weatherlink.com 1.10,2013-02-22 07:01:00,
2013-02-22 01:16:00,33.8,33.0,29.83,ENE,62,0.0,0.0,96,0.00,,,0.00,weatherlink.com 1.10,2013-02-22 07:16:00,
2013-02-22 01:31:00,33.7,33.0,29.84,ENE,62,0.0,0.0,96,0.00,,,0.00,weatherlink.com 1.10,2013-02-22 07:31:00,
2013-02-22 01:46:00,33.5,33.0,29.83,ENE,62,0.0,0.0,96,0.00,,,0.00,weatherlink.com 1.10,2013-02-22 07:46:00,
2013-02-22 02:01:00,33.5,33.0,29.82,ENE,62,0.0,0.0,96,0.00,,,0.00,weatherlink.com 1.10,2013-02-22 08:01:00,
2013-02-22 02:16:00,33.5,33.0,29.82,ENE,62,0.0,0.0,96,0.00,,,0.00,weatherlink.com 1.10,2013-02-22 08:16:00,
2013-02-22 02:31:00,33.7,33.0,29.82,ENE,62,0.0,0.0,96,0.00,,,0.00,weatherlink.com 1.10,2013-02-22 08:31:00,
2013-02-22 02:46:00,33.6,33.0,29.82,ENE,62,0.0,0.0,96,0.00,,,0.00,weatherlink.com 1.10,2013-02-22 08:46:00,
2013-02-22 03:01:00,33.8,33.0,29.83,ENE,62,0.0,0.0,96,0.00,,,0.00,weatherlink.com 1.10,2013-02-22 09:01:00,
2013-02-22 03:16:00,34.2,34.0,29.83,ENE,62,0.0,0.0,97,0.00,,,0.00,weatherlink.com 1.10,2013-02-22 09:16:00,
2013-02-22 03:31:00,34.3,33.0,29.84,West,263,0.0,0.0,96,0.00,,,0.00,weatherlink.com 1.10,2013-02-22 09:31:00,
2013-02-22 03:46:00,34.0,33.0,29.84,WSW,254,0.0,0.0,96,0.00,,,0.00,weatherlink.com 1.10,2013-02-22 09:46:00,
2013-02-22 04:01:00,33.9,33.0,29.85,SW,229,1.0,8.0,96,0.00,,,0.00,weatherlink.com 1.10,2013-02-22 10:01:00,
2013-02-22 04:16:00,33.9,33.0,29.85,SSW,199,3.0,6.0,96,0.00,,,0.00,weatherlink.com 1.10,2013-02-22 10:16:00,
2013-02-22 04:31:00,33.8,33.0,29.86,SSW,205,3.0,7.0,96,0.00,,,0.00,weatherlink.com 1.10,2013-02-22 10:31:00,
2013-02-22 04:46:00,33.8,33.0,29.86,SSW,205,5.0,8.0,96,0.00,,,0.00,weatherlink.com 1.10,2013-02-22 10:46:00,
2013-02-22 05:01:00,33.9,33.0,29.87,SSW,196,1.0,5.0,96,0.00,,,0.00,weatherlink.com 1.10,2013-02-22 11:01:00,
2013-02-22 05:16:00,33.9,33.0,29.88,SSW,192,0.0,6.0,96,0.00,,,0.00,weatherlink.com 1.10,2013-02-22 11:16:00,
2013-02-22 05:31:00,34.2,33.0,29.89,South,179,3.0,5.0,96,0.00,,,0.00,weatherlink.com 1.10,2013-02-22 11:31:00,
2013-02-22 05:47:00,34.3,33.0,29.89,South,170,4.0,6.0,96,0.00,,,0.00,weatherlink.com 1.10,2013-02-22 11:47:00,
2013-02-22 06:02:00,34.4,33.0,29.91,SSW,207,2.0,7.0,95,0.00,,,0.00,weatherlink.com 1.10,2013-02-22 12:02:00,
2013-02-22 06:16:00,34.5,33.0,29.91,SSW,200,4.0,8.0,95,0.00,,,0.00,weatherlink.com 1.10,2013-02-22 12:16:00,
2013-02-22 06:32:00,34.4,33.0,29.91,South,185,1.0,5.0,95,0.00,,,0.00,weatherlink.com 1.10,2013-02-22 12:32:00,
2013-02-22 06:47:00,34.4,33.0,29.91,SW,227,5.0,6.0,95,0.00,,,0.00,weatherlink.com 1.10,2013-02-22 12:47:00,
2013-02-22 07:02:00,34.4,33.0,29.92,SW,220,0.0,5.0,95,0.00,,,0.00,weatherlink.com 1.10,2013-02-22 13:02:00,
2013-02-22 07:17:00,34.5,33.0,29.91,SSW,211,4.0,7.0,95,0.00,,,0.00,weatherlink.com 1.10,2013-02-22 13:17:00,
2013-02-22 07:32:00,34.5,33.0,29.92,SSE,165,2.0,5.0,94,0.00,,,0.00,weatherlink.com 1.10,2013-02-22 13:32:00,
2013-02-22 07:47:00,34.5,33.0,29.92,SSE,165,0.0,3.0,94,0.00,,,0.00,weatherlink.com 1.10,2013-02-22 13:47:00,
2013-02-22 08:02:00,34.7,33.0,29.93,South,177,4.0,6.0,94,0.00,,,0.00,weatherlink.com 1.10,2013-02-22 14:02:00,
2013-02-22 08:17:00,34.8,33.0,29.94,South,179,3.0,6.0,94,0.00,,,0.00,weatherlink.com 1.10,2013-02-22 14:17:00,
2013-02-22 08:32:00,35.1,34.0,29.94,SW,233,2.0,6.0,94,0.01,,,0.01,weatherlink.com 1.10,2013-02-22 14:32:00,
2013-02-22 08:47:00,35.3,34.0,29.95,SSW,209,1.0,6.0,93,0.02,,,0.02,weatherlink.com 1.10,2013-02-22 14:47:00,
2013-02-22 09:02:00,35.4,34.0,29.95,South,183,2.0,7.0,93,0.05,,,0.05,weatherlink.com 1.10,2013-02-22 15:02:00,
2013-02-22 09:17:00,35.6,34.0,29.95,SSW,209,1.0,7.0,93,0.14,,,0.14,weatherlink.com 1.10,2013-02-22 15:17:00,
2013-02-22 09:32:00,35.7,34.0,29.95,SW,214,3.0,6.0,92,0.18,,,0.19,weatherlink.com 1.10,2013-02-22 15:32:00,
2013-02-22 09:47:00,35.9,34.0,29.96,SW,217,1.0,7.0,92,0.19,,,0.21,weatherlink.com 1.10,2013-02-22 15:47:00,
2013-02-22 10:02:00,36.1,34.0,29.96,South,173,1.0,6.0,92,0.17,,,0.23,weatherlink.com 1.10,2013-02-22 16:02:00,
2013-02-22 10:17:00,36.5,34.0,29.96,SW,222,0.0,8.0,91,0.11,,,0.26,weatherlink.com 1.10,2013-02-22 16:17:00,
2013-02-22 10:32:00,37.1,35.0,29.96,SSW,195,5.0,9.0,90,0.10,,,0.29,weatherlink.com 1.10,2013-02-22 16:32:00,
2013-02-22 10:47:00,37.9,35.0,29.97,SSW,212,2.0,9.0,88,0.13,,,0.34,weatherlink.com 1.10,2013-02-22 16:47:00,
2013-02-22 11:02:00,38.4,35.0,29.98,SSW,212,4.0,8.0,88,0.16,,,0.40,weatherlink.com 1.10,2013-02-22 17:02:00,
2013-02-22 11:17:00,38.9,35.0,29.98,South,183,4.0,11.0,86,0.18,,,0.44,weatherlink.com 1.10,2013-02-22 17:17:00,
2013-02-22 11:32:00,39.3,35.0,29.97,SW,222,9.0,12.0,85,0.17,,,0.47,weatherlink.com 1.10,2013-02-22 17:32:00,
2013-02-22 11:47:00,39.3,35.0,29.97,SSE,156,1.0,13.0,83,0.15,,,0.50,weatherlink.com 1.10,2013-02-22 17:47:00,
2013-02-22 12:02:00,39.2,35.0,29.97,SW,234,6.0,13.0,83,0.12,,,0.52,weatherlink.com 1.10,2013-02-22 18:02:00,
2013-02-22 12:18:00,39.4,34.0,29.97,SW,232,9.0,13.0,82,0.10,,,0.54,weatherlink.com 1.10,2013-02-22 18:18:00,
2013-02-22 12:32:00,39.3,34.0,29.96,SW,218,15.0,15.0,81,0.08,,,0.55,weatherlink.com 1.10,2013-02-22 18:32:00,
2013-02-22 12:47:00,39.6,35.0,29.96,West,275,6.0,10.0,82,0.07,,,0.57,weatherlink.com 1.10,2013-02-22 18:47:00,
2013-02-22 13:03:00,39.1,34.0,29.96,West,276,5.0,14.0,83,0.06,,,0.58,weatherlink.com 1.10,2013-02-22 19:03:00,
2013-02-22 13:17:00,38.8,34.0,29.96,WSW,249,10.0,16.0,82,0.06,,,0.60,weatherlink.com 1.10,2013-02-22 19:17:00,
2013-02-22 13:32:00,39.3,34.0,29.96,WSW,253,3.0,13.0,81,0.05,,,0.61,weatherlink.com 1.10,2013-02-22 19:32:00,
2013-02-22 13:47:00,39.4,34.0,29.96,SSW,206,6.0,14.0,80,0.05,,,0.62,weatherlink.com 1.10,2013-02-22 19:47:00,
2013-02-22 14:02:00,39.3,33.0,29.96,SSE,166,7.0,17.0,78,0.05,,,0.63,weatherlink.com 1.10,2013-02-22 20:02:00,
2013-02-22 14:18:00,39.2,33.0,29.97,SW,230,5.0,17.0,77,0.04,,,0.64,weatherlink.com 1.10,2013-02-22 20:18:00,
2013-02-22 14:32:00,39.2,33.0,29.97,WNW,282,3.0,19.0,77,0.03,,,0.64,weatherlink.com 1.10,2013-02-22 20:32:00,
2013-02-22 14:47:00,39.4,33.0,29.97,SSW,206,5.0,14.0,77,0.03,,,0.65,weatherlink.com 1.10,2013-02-22 20:47:00,
2013-02-22 15:03:00,39.2,32.0,29.98,WSW,255,4.0,10.0,76,0.03,,,0.66,weatherlink.com 1.10,2013-02-22 21:03:00,
2013-02-22 15:18:00,39.2,32.0,29.98,West,280,8.0,12.0,76,0.02,,,0.66,weatherlink.com 1.10,2013-02-22 21:18:00,
2013-02-22 15:32:00,39.4,33.0,29.98,West,270,9.0,14.0,77,0.03,,,0.67,weatherlink.com 1.10,2013-02-22 21:32:00,
2013-02-22 15:47:00,38.6,32.0,29.98,NW,316,4.0,12.0,76,0.02,,,0.67,weatherlink.com 1.10,2013-02-22 21:47:00,
2013-02-22 16:02:00,38.5,32.0,29.98,WNW,282,6.0,10.0,76,0.01,,,0.67,weatherlink.com 1.10,2013-02-22 22:02:00,
2013-02-22 16:17:00,37.6,31.0,29.98,WSW,241,7.0,13.0,76,0.02,,,0.68,weatherlink.com 1.10,2013-02-22 22:17:00,
2013-02-22 16:33:00,37.1,30.0,29.98,West,263,6.0,8.0,76,0.01,,,0.68,weatherlink.com 1.10,2013-02-22 22:33:00,
2013-02-22 16:48:00,36.3,29.0,29.99,West,276,2.0,11.0,76,0.01,,,0.68,weatherlink.com 1.10,2013-02-22 22:48:00,
2013-02-22 17:03:00,36.4,29.0,29.99,WSW,253,5.0,9.0,75,0.01,,,0.68,weatherlink.com 1.10,2013-02-22 23:03:00,
2013-02-22 17:18:00,35.8,29.0,30.00,West,275,5.0,8.0,75,0.00,,,0.68,weatherlink.com 1.10,2013-02-22 23:18:00,
2013-02-22 17:33:00,35.3,28.0,30.00,WNW,297,1.0,4.0,76,0.00,,,0.68,weatherlink.com 1.10,2013-02-22 23:33:00,
2013-02-22 17:48:00,35.1,28.0,30.00,WNW,285,3.0,6.0,75,0.00,,,0.68,weatherlink.com 1.10,2013-02-22 23:48:00,
2013-02-22 18:03:00,35.1,28.0,30.01,West,268,0.0,3.0,75,0.00,,,0.68,weatherlink.com 1.10,2013-02-23 00:03:00,
2013-02-22 18:18:00,35.0,28.0,30.01,WNW,287,2.0,5.0,75,0.00,,,0.68,weatherlink.com 1.10,2013-02-23 00:18:00,
2013-02-22 18:33:00,35.1,28.0,30.02,West,265,4.0,8.0,75,0.00,,,0.68,weatherlink.com 1.10,2013-02-23 00:33:00,
2013-02-22 18:48:00,35.0,28.0,30.02,West,280,4.0,5.0,75,0.00,,,0.68,weatherlink.com 1.10,2013-02-23 00:48:00,
2013-02-22 19:03:00,34.9,28.0,30.03,West,259,6.0,6.0,76,0.00,,,0.68,weatherlink.com 1.10,2013-02-23 01:03:00,
2013-02-22 19:18:00,34.7,28.0,30.03,WSW,237,4.0,7.0,77,0.00,,,0.68,weatherlink.com 1.10,2013-02-23 01:18:00,
2013-02-22 19:33:00,34.5,28.0,30.04,WSW,244,4.0,6.0,77,0.00,,,0.68,weatherlink.com 1.10,2013-02-23 01:33:00,
2013-02-22 19:48:00,34.1,28.0,30.04,WNW,288,1.0,6.0,77,0.00,,,0.68,weatherlink.com 1.10,2013-02-23 01:48:00,
2013-02-22 20:03:00,33.5,27.0,30.04,West,273,2.0,5.0,78,0.00,,,0.68,weatherlink.com 1.10,2013-02-23 02:03:00,
2013-02-22 20:18:00,33.0,27.0,30.05,WNW,299,2.0,6.0,79,0.00,,,0.68,weatherlink.com 1.10,2013-02-23 02:18:00,
2013-02-22 20:33:00,32.5,27.0,30.05,WNW,298,0.0,2.0,80,0.00,,,0.68,weatherlink.com 1.10,2013-02-23 02:33:00,
2013-02-22 20:48:00,31.9,27.0,30.05,WNW,298,0.0,0.0,82,0.00,,,0.68,weatherlink.com 1.10,2013-02-23 02:48:00,
2013-02-22 21:03:00,31.4,27.0,30.06,WNW,298,0.0,0.0,83,0.00,,,0.68,weatherlink.com 1.10,2013-02-23 03:03:00,
2013-02-22 21:18:00,31.0,27.0,30.07,WNW,298,0.0,1.0,85,0.00,,,0.68,weatherlink.com 1.10,2013-02-23 03:18:00,
2013-02-22 21:33:00,30.8,27.0,30.07,WNW,298,0.0,1.0,84,0.00,,,0.68,weatherlink.com 1.10,2013-02-23 03:33:00,
2013-02-22 21:49:00,30.5,27.0,30.07,WNW,298,0.0,0.0,85,0.00,,,0.68,weatherlink.com 1.10,2013-02-23 03:49:00,
2013-02-22 22:03:00,30.2,27.0,30.07,WNW,298,0.0,0.0,86,0.00,,,0.68,weatherlink.com 1.10,2013-02-23 04:03:00,
2013-02-22 22:19:00,30.0,26.0,30.07,WNW,298,0.0,1.0,86,0.00,,,0.68,weatherlink.com 1.10,2013-02-23 04:19:00,
2013-02-22 22:34:00,29.9,26.0,30.07,WNW,298,0.0,0.0,86,0.00,,,0.68,weatherlink.com 1.10,2013-02-23 04:34:00,
2013-02-22 22:48:00,29.7,26.0,30.06,WNW,298,0.0,0.0,87,0.00,,,0.68,weatherlink.com 1.10,2013-02-23 04:48:00,
2013-02-22 23:03:00,29.4,26.0,30.06,WNW,298,0.0,3.0,88,0.00,,,0.68,weatherlink.com 1.10,2013-02-23 05:03:00,
2013-02-22 23:19:00,29.2,26.0,30.06,WNW,298,0.0,0.0,87,0.00,,,0.68,weatherlink.com 1.10,2013-02-23 05:19:00,
2013-02-22 23:33:00,28.8,26.0,30.05,WNW,298,0.0,0.0,88,0.00,,,0.68,weatherlink.com 1.10,2013-02-23 05:33:00,
2013-02-22 23:48:00,28.4,26.0,30.06,WNW,298,0.0,0.0,89,0.00,,,0.68,weatherlink.com 1.10,2013-02-23 05:48:00,